createdAt,value
2022-12-02T00:01:35.525Z,12.27
2022-12-02T00:04:14.162Z,17.30
2022-12-02T00:06:45.521Z,19.07
2022-12-02T00:09:20.290Z,19.07
2022-12-02T00:11:51.177Z,18.40
2022-12-02T00:14:26.385Z,17.50
2022-12-02T00:16:57.654Z,15.67
2022-12-02T00:19:28.190Z,16.27
2022-12-02T00:21:58.824Z,15.70
2022-12-02T00:24:29.454Z,15.17
2022-12-02T00:27:00.030Z,17.97
2022-12-02T00:29:30.714Z,18.37
2022-12-02T00:32:01.300Z,16.73
2022-12-02T00:34:31.978Z,19.30
2022-12-02T00:37:02.537Z,17.67
2022-12-02T00:39:33.114Z,18.87
2022-12-02T00:42:03.713Z,18.67
2022-12-02T00:44:52.041Z,17.67
2022-12-02T00:47:23.156Z,17.37
2022-12-02T00:49:53.743Z,18.67
2022-12-02T00:52:24.274Z,20.67
2022-12-02T00:54:54.853Z,16.97
2022-12-02T00:57:25.435Z,19.30
2022-12-02T00:59:56.066Z,19.97
2022-12-02T01:02:26.716Z,17.77
2022-12-02T01:04:57.367Z,15.17
2022-12-02T01:07:28.155Z,13.73
2022-12-02T01:09:58.698Z,15.63
2022-12-02T01:12:29.266Z,15.03
2022-12-02T01:14:59.948Z,15.87
2022-12-02T01:17:30.485Z,15.57
2022-12-02T01:20:01.019Z,17.13
2022-12-02T01:22:30.832Z,15.23
2022-12-02T01:25:01.384Z,22.97
2022-12-02T01:27:32.083Z,17.10
2022-12-02T01:30:02.616Z,18.30
2022-12-02T01:32:33.153Z,16.83
2022-12-02T01:35:03.735Z,18.90
2022-12-02T01:37:34.308Z,19.37
2022-12-02T01:40:05.018Z,18.00
2022-12-02T01:42:35.880Z,18.80
2022-12-02T01:45:08.759Z,17.40
2022-12-02T01:47:40.314Z,20.17
2022-12-02T01:50:14.702Z,15.93
2022-12-02T01:52:45.925Z,17.13
2022-12-02T01:55:19.832Z,18.83
2022-12-02T01:57:52.169Z,18.80
2022-12-02T02:00:23.822Z,18.93
2022-12-02T02:02:54.456Z,21.43
2022-12-02T02:05:27.969Z,19.40
2022-12-02T02:08:01.155Z,16.53
2022-12-02T02:10:32.091Z,16.63
2022-12-02T02:13:03.629Z,19.37
2022-12-02T02:15:34.487Z,19.53
2022-12-02T02:18:05.715Z,17.60
2022-12-02T02:20:38.910Z,17.87
2022-12-02T02:26:13.304Z,21.00
2022-12-02T02:28:43.938Z,21.13
2022-12-02T02:31:14.588Z,19.40
2022-12-02T02:33:45.439Z,18.80
2022-12-02T02:36:16.204Z,17.20
2022-12-02T02:38:48.819Z,19.67
2022-12-02T02:41:19.842Z,18.80
2022-12-02T02:43:50.752Z,18.23
2022-12-02T02:46:21.988Z,18.37
2022-12-02T02:48:53.074Z,21.13
2022-12-02T02:51:24.331Z,21.07
2022-12-02T02:53:54.889Z,20.63
2022-12-02T02:56:25.589Z,18.87
2022-12-02T02:58:56.374Z,18.37
2022-12-02T03:01:29.902Z,17.77
2022-12-02T03:04:03.515Z,17.13
2022-12-02T03:06:36.244Z,20.80
2022-12-02T03:09:08.988Z,19.53
2022-12-02T03:11:44.117Z,19.33
2022-12-02T03:14:16.104Z,21.60
2022-12-02T03:16:47.681Z,17.27
2022-12-02T03:19:20.358Z,17.70
2022-12-02T03:21:51.101Z,18.90
2022-12-02T03:24:21.989Z,16.60
2022-12-02T03:26:53.120Z,20.03
2022-12-02T03:29:23.718Z,16.97
2022-12-02T03:31:54.514Z,22.23
2022-12-02T03:34:25.223Z,20.23
2022-12-02T03:36:56.157Z,22.60
2022-12-02T03:39:27.311Z,22.53
2022-12-02T03:41:58.047Z,18.50
2022-12-02T03:44:28.690Z,17.53
2022-12-02T03:46:59.623Z,20.03
2022-12-02T03:49:30.511Z,15.30
2022-12-02T03:52:01.342Z,19.57
2022-12-02T03:54:32.015Z,20.40
2022-12-02T03:57:04.032Z,21.67
2022-12-02T03:59:34.827Z,22.93
2022-12-02T04:02:05.464Z,24.40
2022-12-02T04:04:36.163Z,20.33
2022-12-02T04:07:06.766Z,19.27
2022-12-02T04:09:37.339Z,19.03
2022-12-02T04:12:08.435Z,20.87
2022-12-02T04:14:39.014Z,18.00
2022-12-02T04:17:09.689Z,18.43
2022-12-02T04:19:40.732Z,18.90
2022-12-02T04:22:11.272Z,21.53
2022-12-02T04:24:41.852Z,25.77
2022-12-02T04:27:12.526Z,24.77
2022-12-02T04:29:43.374Z,20.47
2022-12-02T04:32:13.946Z,19.13
2022-12-02T04:34:45.648Z,23.60
2022-12-02T04:37:16.334Z,23.47
2022-12-02T04:39:46.879Z,23.70
2022-12-02T04:42:17.444Z,22.93
2022-12-02T04:44:48.302Z,23.47
2022-12-02T04:47:19.316Z,20.93
2022-12-02T04:49:49.864Z,24.97
2022-12-02T04:52:20.656Z,21.67
2022-12-02T04:54:51.479Z,19.53
2022-12-02T04:57:25.395Z,21.97
2022-12-02T04:59:54.396Z,21.93
2022-12-02T05:02:24.948Z,23.20
2022-12-02T05:04:55.972Z,20.30
2022-12-02T05:07:26.861Z,21.80
2022-12-02T05:09:57.695Z,21.80
2022-12-02T05:12:28.243Z,22.00
2022-12-02T05:14:58.884Z,22.77
2022-12-02T05:17:30.922Z,22.17
2022-12-02T05:20:01.462Z,23.47
2022-12-02T05:22:32.105Z,19.93
2022-12-02T05:25:02.735Z,18.37
2022-12-02T05:27:35.549Z,22.37
2022-12-02T05:30:08.062Z,21.57
2022-12-02T05:32:38.676Z,21.20
2022-12-02T05:35:10.337Z,23.83
2022-12-02T05:37:40.915Z,22.37
2022-12-02T05:40:13.443Z,18.47
2022-12-02T05:42:44.514Z,22.10
2022-12-02T05:45:21.933Z,22.63
2022-12-02T05:47:54.659Z,23.17
2022-12-02T05:50:25.789Z,25.13
2022-12-02T05:52:56.884Z,23.73
2022-12-02T05:55:27.514Z,26.87
2022-12-02T05:58:01.947Z,21.30
2022-12-02T06:00:33.743Z,23.90
2022-12-02T06:03:06.728Z,22.13
2022-12-02T06:05:40.616Z,23.17
2022-12-02T06:08:16.810Z,21.20
2022-12-02T06:10:50.543Z,22.33
2022-12-02T06:13:24.484Z,22.80
2022-12-02T06:15:55.767Z,26.00
2022-12-02T06:18:29.938Z,24.00
2022-12-02T06:21:03.215Z,21.80
2022-12-02T06:23:36.168Z,22.73
2022-12-02T06:26:07.120Z,25.23
2022-12-02T06:28:40.577Z,23.50
2022-12-02T06:31:15.870Z,22.20
2022-12-02T06:33:47.919Z,21.20
2022-12-02T06:39:01.478Z,24.10
2022-12-02T06:41:34.310Z,24.43
2022-12-02T06:44:39.694Z,25.90
2022-12-02T06:47:58.556Z,22.37
2022-12-02T06:50:42.993Z,22.70
2022-12-02T06:53:36.477Z,22.73
2022-12-02T06:56:18.273Z,23.00
2022-12-02T06:58:51.433Z,22.67
2022-12-02T07:01:38.976Z,22.13
2022-12-02T07:07:20.652Z,20.67
2022-12-02T07:09:55.309Z,23.10
2022-12-02T07:12:28.527Z,24.93
2022-12-02T07:15:00.853Z,22.43
2022-12-02T07:17:34.275Z,19.93
2022-12-02T07:20:11.377Z,21.43
2022-12-02T07:22:44.489Z,22.90
2022-12-02T07:25:32.735Z,22.70
2022-12-02T07:28:04.290Z,22.33
2022-12-02T07:30:37.830Z,29.20
2022-12-02T07:33:08.556Z,26.13
2022-12-02T07:35:39.480Z,20.30
2022-12-02T07:38:10.067Z,24.70
2022-12-02T07:40:42.450Z,25.60
2022-12-02T07:43:13.175Z,35.30
2022-12-02T07:45:44.014Z,22.87
2022-12-02T07:48:14.787Z,25.23
2022-12-02T07:50:45.494Z,22.27
2022-12-02T07:53:16.083Z,24.10
2022-12-02T07:55:46.701Z,24.63
2022-12-02T07:58:17.368Z,22.77
2022-12-02T08:00:47.947Z,25.23
2022-12-02T08:03:18.520Z,23.00
2022-12-02T08:05:49.085Z,27.20
2022-12-02T08:08:19.708Z,23.10
2022-12-02T08:10:50.303Z,26.37
2022-12-02T08:13:20.963Z,27.17
2022-12-02T08:15:54.237Z,23.47
2022-12-02T08:18:23.794Z,26.07
2022-12-02T08:20:54.349Z,23.47
2022-12-02T08:23:25.049Z,24.40
2022-12-02T08:25:55.819Z,26.67
2022-12-02T08:28:26.375Z,21.30
2022-12-02T08:30:57.036Z,27.57
2022-12-02T08:33:27.826Z,22.33
2022-12-02T08:35:58.467Z,25.57
2022-12-02T08:38:29.159Z,20.83
2022-12-02T08:40:59.787Z,22.30
2022-12-02T08:43:30.473Z,24.07
2022-12-02T08:46:01.185Z,25.67
2022-12-02T08:48:31.803Z,22.00
2022-12-02T08:51:03.578Z,26.70
2022-12-02T08:53:34.171Z,24.10
2022-12-02T08:56:04.977Z,21.07
2022-12-02T08:58:36.106Z,23.17
2022-12-02T09:01:07.756Z,22.87
2022-12-02T09:03:38.492Z,21.83
2022-12-02T09:06:10.477Z,23.43
2022-12-02T09:08:41.208Z,23.60
2022-12-02T09:11:12.330Z,23.00
2022-12-02T09:13:43.220Z,21.17
2022-12-02T09:16:14.005Z,23.83
2022-12-02T09:18:44.618Z,24.03
2022-12-02T09:21:15.302Z,24.33
2022-12-02T09:23:50.312Z,21.20
2022-12-02T09:26:18.159Z,21.23
2022-12-02T09:28:48.939Z,22.87
2022-12-02T09:31:19.927Z,26.73
2022-12-02T09:33:50.837Z,22.80
2022-12-02T09:36:21.505Z,22.00
2022-12-02T09:38:52.543Z,22.97
2022-12-02T09:41:23.347Z,22.47
2022-12-02T09:43:54.069Z,23.57
2022-12-02T09:46:26.028Z,21.87
2022-12-02T09:48:56.830Z,24.50
2022-12-02T09:51:27.542Z,22.70
2022-12-02T09:53:58.898Z,25.20
2022-12-02T09:56:30.615Z,22.80
2022-12-02T09:59:01.194Z,22.23
2022-12-02T10:01:31.781Z,26.43
2022-12-02T10:04:02.548Z,27.83
2022-12-02T10:06:33.188Z,27.63
2022-12-02T10:09:04.735Z,26.53
2022-12-02T10:11:36.722Z,23.50
2022-12-02T10:14:07.293Z,32.37
2022-12-02T10:16:39.086Z,29.33
2022-12-02T10:19:11.846Z,27.23
2022-12-02T10:21:42.592Z,23.33
2022-12-02T10:24:13.610Z,23.97
2022-12-02T10:26:50.458Z,24.37
2022-12-02T10:29:23.655Z,22.53
2022-12-02T10:31:59.694Z,22.73
2022-12-02T10:34:32.100Z,26.03
2022-12-02T10:37:18.302Z,23.83
2022-12-02T10:39:48.894Z,27.07
2022-12-02T10:42:21.744Z,25.03
2022-12-02T10:45:11.449Z,23.73
2022-12-02T10:47:42.292Z,26.17
2022-12-02T10:50:20.750Z,22.57
2022-12-02T10:52:53.703Z,21.87
2022-12-02T10:55:25.047Z,24.10
2022-12-02T10:57:56.036Z,22.57
2022-12-02T11:00:28.160Z,21.40
2022-12-02T11:03:00.768Z,20.30
2022-12-02T11:05:33.753Z,23.73
2022-12-02T11:08:07.492Z,23.93
2022-12-02T11:10:40.741Z,22.10
2022-12-02T11:13:34.870Z,22.07
2022-12-02T11:16:52.949Z,19.30
2022-12-02T11:19:43.669Z,25.77
2022-12-02T11:23:10.609Z,20.33
2022-12-02T11:26:08.604Z,25.77
2022-12-02T11:29:21.201Z,19.27
2022-12-02T11:32:07.099Z,20.73
2022-12-02T11:35:18.238Z,21.20
2022-12-02T11:37:43.320Z,20.53
2022-12-02T11:41:05.267Z,18.17
2022-12-02T11:46:52.819Z,19.20
2022-12-02T11:49:30.400Z,20.97
2022-12-02T11:52:28.193Z,19.17
2022-12-02T11:55:20.108Z,23.07
2022-12-02T11:57:52.400Z,19.20
2022-12-02T12:00:30.323Z,21.90
2022-12-02T12:03:15.513Z,18.43
2022-12-02T12:06:06.784Z,26.27
2022-12-02T12:08:38.078Z,19.53
2022-12-02T12:11:21.079Z,21.30
2022-12-02T12:14:06.641Z,20.43
2022-12-02T12:16:39.404Z,18.57
2022-12-02T12:19:28.862Z,18.50
2022-12-02T12:22:00.525Z,19.70
2022-12-02T12:24:33.329Z,20.20
2022-12-02T12:27:16.498Z,22.37
2022-12-02T12:29:47.069Z,20.10
2022-12-02T12:32:17.657Z,17.90
2022-12-02T12:34:48.639Z,20.40
2022-12-02T12:37:19.213Z,18.53
2022-12-02T12:39:49.796Z,20.90
2022-12-02T12:42:20.891Z,19.57
2022-12-02T12:44:52.736Z,20.37
2022-12-02T12:47:23.784Z,22.87
2022-12-02T12:49:54.410Z,18.17
2022-12-02T12:52:24.999Z,19.97
2022-12-02T12:54:55.663Z,17.13
2022-12-02T12:57:26.581Z,17.93
2022-12-02T12:59:57.270Z,15.83
2022-12-02T13:02:28.017Z,18.67
2022-12-02T13:04:58.940Z,19.33
2022-12-02T13:07:34.347Z,16.90
2022-12-02T13:10:05.144Z,19.73
2022-12-02T13:12:35.809Z,17.70
2022-12-02T13:15:07.795Z,19.17
2022-12-02T13:17:40.198Z,18.17
2022-12-02T13:20:14.397Z,20.33
2022-12-02T13:22:45.891Z,17.17
2022-12-02T13:25:17.743Z,19.33
2022-12-02T13:27:48.961Z,16.93
2022-12-02T13:30:22.623Z,15.23
2022-12-02T13:32:53.878Z,20.37
2022-12-02T13:35:25.510Z,18.93
2022-12-02T13:37:56.237Z,17.67
2022-12-02T13:40:27.535Z,19.67
2022-12-02T13:42:58.573Z,19.50
2022-12-02T13:45:30.440Z,15.47
2022-12-02T13:48:02.115Z,17.43
2022-12-02T13:50:33.062Z,19.40
2022-12-02T13:53:03.813Z,16.57
2022-12-02T13:55:34.447Z,16.97
2022-12-02T13:58:05.034Z,20.83
2022-12-02T14:00:35.693Z,17.63
2022-12-02T14:03:06.508Z,18.23
2022-12-02T14:05:37.192Z,16.70
2022-12-02T14:08:08.262Z,16.73
2022-12-02T14:10:39.084Z,17.57
2022-12-02T14:13:15.823Z,19.03
2022-12-02T14:15:42.285Z,16.57
2022-12-02T14:18:13.828Z,15.60
2022-12-02T14:20:44.957Z,18.63
2022-12-02T14:23:16.006Z,19.03
2022-12-02T14:25:46.633Z,20.77
2022-12-02T14:28:17.275Z,17.13
2022-12-02T14:30:47.969Z,15.23
2022-12-02T14:33:18.592Z,20.00
2022-12-02T14:35:50.546Z,19.00
2022-12-02T14:38:21.293Z,22.30
2022-12-02T14:40:51.853Z,16.37
2022-12-02T14:43:23.183Z,15.73
2022-12-02T14:45:53.850Z,16.50
2022-12-02T14:48:28.134Z,17.70
2022-12-02T14:50:56.995Z,16.87
2022-12-02T14:53:27.556Z,20.70
2022-12-02T14:55:58.239Z,20.33
2022-12-02T14:58:28.822Z,19.73
2022-12-02T15:00:59.457Z,18.80
2022-12-02T15:03:30.030Z,19.73
2022-12-02T15:06:00.667Z,17.47
2022-12-02T15:08:31.372Z,19.70
2022-12-02T15:11:01.997Z,16.90
2022-12-02T15:13:32.545Z,17.10
2022-12-02T15:16:03.534Z,19.70
2022-12-02T15:18:35.448Z,14.80
2022-12-02T15:21:10.511Z,14.97
2022-12-02T15:23:38.573Z,20.13
2022-12-02T15:26:09.567Z,18.50
2022-12-02T15:28:40.088Z,18.07
2022-12-02T15:31:10.638Z,14.03
2022-12-02T15:33:41.363Z,16.10
2022-12-02T15:36:12.809Z,19.10
2022-12-02T15:38:43.550Z,18.77
2022-12-02T15:41:14.660Z,16.50
2022-12-02T15:43:50.004Z,20.00
2022-12-02T15:46:17.494Z,18.97
2022-12-02T15:48:48.288Z,18.03
2022-12-02T15:51:19.237Z,17.53
2022-12-02T15:53:49.976Z,19.50
2022-12-02T15:56:20.751Z,20.47
2022-12-02T15:58:51.399Z,19.97
2022-12-02T16:01:22.079Z,18.40
2022-12-02T16:03:52.945Z,21.87
2022-12-02T16:06:23.872Z,23.10
2022-12-02T16:08:55.995Z,17.77
2022-12-02T16:11:26.802Z,17.60
2022-12-02T16:13:57.411Z,18.33
2022-12-02T16:16:28.109Z,17.67
2022-12-02T16:18:58.772Z,17.93
2022-12-02T16:21:29.471Z,17.23
2022-12-02T16:24:00.026Z,20.10
2022-12-02T16:26:30.714Z,20.33
2022-12-02T16:29:01.587Z,18.93
2022-12-02T16:31:32.316Z,30.17
2022-12-02T16:34:03.897Z,15.53
2022-12-02T16:36:34.577Z,18.50
2022-12-02T16:39:06.453Z,19.47
2022-12-02T16:41:37.340Z,19.87
2022-12-02T16:44:08.537Z,19.50
2022-12-02T16:46:39.664Z,21.93
2022-12-02T16:49:10.331Z,26.63
2022-12-02T16:51:40.934Z,22.83
2022-12-02T16:54:11.536Z,18.30
2022-12-02T16:56:42.189Z,19.30
2022-12-02T16:59:12.775Z,22.93
2022-12-02T17:01:43.412Z,23.23
2022-12-02T17:04:14.138Z,21.43
2022-12-02T17:06:45.822Z,20.00
2022-12-02T17:09:16.733Z,22.90
2022-12-02T17:11:47.630Z,22.80
2022-12-02T17:14:18.276Z,22.27
2022-12-02T17:16:48.959Z,20.13
2022-12-02T17:19:20.583Z,19.50
2022-12-02T17:21:51.252Z,24.50
2022-12-02T17:24:21.938Z,24.20
2022-12-02T17:26:55.807Z,26.43
2022-12-02T17:29:24.845Z,22.50
2022-12-02T17:31:55.537Z,23.03
2022-12-02T17:34:26.838Z,36.93
2022-12-02T17:36:57.504Z,36.57
2022-12-02T17:39:28.011Z,29.93
2022-12-02T17:41:58.625Z,26.93
2022-12-02T17:44:30.724Z,22.97
2022-12-02T17:47:01.363Z,34.10
2022-12-02T17:49:34.469Z,38.80
2022-12-02T17:52:19.831Z,38.47
2022-12-02T17:54:37.853Z,27.07
2022-12-02T17:57:08.503Z,28.20
2022-12-02T17:59:39.234Z,23.90
2022-12-02T18:02:11.927Z,28.80
2022-12-02T18:04:44.787Z,22.40
2022-12-02T18:07:15.750Z,27.20
2022-12-02T18:09:46.382Z,23.90
2022-12-02T18:12:16.992Z,26.20
2022-12-02T18:14:47.681Z,26.03
2022-12-02T18:17:18.562Z,25.57
2022-12-02T18:19:49.357Z,26.13
2022-12-02T18:22:20.122Z,28.20
2022-12-02T18:27:29.945Z,22.70
2022-12-02T18:30:00.525Z,23.23
2022-12-02T18:32:31.237Z,25.50
2022-12-02T18:35:01.835Z,25.27
2022-12-02T18:37:33.233Z,25.73
2022-12-02T18:41:00.462Z,27.67
2022-12-02T18:43:36.099Z,26.47
2022-12-02T18:46:03.992Z,22.83
2022-12-02T18:48:34.764Z,25.57
2022-12-02T18:51:05.608Z,21.17
2022-12-02T18:53:36.241Z,25.10
2022-12-02T18:56:07.812Z,25.83
2022-12-02T18:58:38.459Z,25.77
2022-12-02T19:01:09.450Z,23.87
2022-12-02T19:03:40.070Z,29.17
2022-12-02T19:06:10.885Z,26.23
2022-12-02T19:08:41.595Z,25.30
2022-12-02T19:11:12.314Z,20.93
2022-12-02T19:13:43.336Z,21.93
2022-12-02T19:16:14.004Z,22.27
2022-12-02T19:18:44.928Z,25.23
2022-12-02T19:21:17.830Z,25.40
2022-12-02T19:23:47.839Z,24.33
2022-12-02T19:26:18.684Z,23.90
2022-12-02T19:28:49.342Z,25.80
2022-12-02T19:31:20.224Z,24.10
2022-12-02T19:33:50.959Z,24.30
2022-12-02T19:36:21.782Z,21.47
2022-12-02T19:38:52.394Z,25.93
2022-12-02T19:41:23.046Z,28.13
2022-12-02T19:43:53.642Z,27.87
2022-12-02T19:46:24.496Z,25.00
2022-12-02T19:48:55.169Z,28.17
2022-12-02T19:51:25.910Z,24.57
2022-12-02T19:53:57.310Z,23.17
2022-12-02T19:56:28.051Z,29.00
2022-12-02T19:58:58.749Z,28.27
2022-12-02T20:01:32.966Z,33.70
2022-12-02T20:04:19.383Z,28.37
2022-12-02T20:06:33.836Z,26.03
2022-12-02T20:09:04.436Z,25.20
2022-12-02T20:11:35.078Z,24.93
2022-12-02T20:14:05.733Z,32.50
2022-12-02T20:19:15.292Z,25.57
2022-12-02T20:21:45.994Z,31.67
2022-12-02T20:24:16.768Z,34.10
2022-12-02T20:26:47.723Z,30.17
2022-12-02T20:29:19.545Z,31.13
2022-12-02T20:31:52.521Z,30.13
2022-12-02T20:34:23.223Z,31.90
2022-12-02T20:36:57.265Z,32.33
2022-12-02T20:39:31.759Z,28.80
2022-12-02T20:42:02.651Z,38.37
2022-12-02T20:44:39.429Z,29.47
2022-12-02T20:47:11.506Z,30.50
2022-12-02T20:49:44.290Z,33.10
2022-12-02T20:52:15.761Z,30.50
2022-12-02T20:54:48.839Z,33.80
2022-12-02T20:57:20.448Z,33.50
2022-12-02T20:59:53.909Z,31.53
2022-12-02T21:05:06.621Z,31.80
2022-12-02T21:07:40.689Z,27.17
2022-12-02T21:10:17.254Z,29.57
2022-12-02T21:13:19.908Z,28.80
2022-12-02T21:15:55.887Z,31.80
2022-12-02T21:18:32.350Z,27.97
2022-12-02T21:23:41.391Z,35.00
2022-12-02T21:28:50.320Z,31.50
2022-12-02T21:31:20.918Z,28.63
2022-12-02T21:33:51.559Z,34.83
2022-12-02T21:36:22.269Z,34.63
2022-12-02T21:38:53.005Z,35.17
2022-12-02T21:41:23.604Z,31.43
2022-12-02T21:46:32.668Z,31.23
2022-12-02T21:51:57.048Z,34.10
2022-12-02T21:57:07.413Z,34.70
2022-12-02T21:59:38.021Z,38.73
2022-12-02T22:04:46.473Z,29.67
2022-12-02T22:09:54.765Z,31.93
2022-12-02T22:12:25.339Z,32.33
2022-12-02T22:17:34.304Z,32.50
2022-12-02T22:22:42.625Z,34.00
2022-12-02T22:25:13.406Z,35.10
2022-12-02T22:27:44.415Z,33.03
2022-12-02T22:32:52.787Z,32.97
2022-12-02T22:35:23.444Z,30.50
2022-12-02T22:37:54.269Z,34.50
2022-12-02T22:40:24.837Z,33.20
2022-12-02T22:42:55.472Z,32.57
2022-12-02T22:45:26.143Z,33.50
2022-12-02T22:47:57.132Z,33.73
2022-12-02T22:50:28.348Z,32.10
2022-12-02T22:52:58.855Z,43.40
2022-12-02T22:55:29.674Z,36.23
2022-12-02T22:58:00.195Z,38.27
2022-12-02T23:00:30.948Z,36.40
2022-12-02T23:03:01.634Z,37.43
2022-12-02T23:05:33.026Z,33.47
2022-12-02T23:08:04.504Z,33.20
2022-12-02T23:10:36.108Z,40.17
2022-12-02T23:13:08.820Z,37.30
2022-12-02T23:15:41.596Z,38.50
2022-12-02T23:18:13.298Z,42.43
2022-12-02T23:20:43.931Z,37.10
2022-12-02T23:23:16.729Z,43.63
2022-12-02T23:25:47.400Z,37.97
2022-12-02T23:28:18.876Z,37.73
2022-12-02T23:30:49.630Z,36.57
2022-12-02T23:33:20.311Z,37.40
2022-12-02T23:35:50.952Z,37.30
2022-12-02T23:38:21.527Z,37.47
2022-12-02T23:40:52.016Z,39.67
2022-12-02T23:43:22.616Z,39.20
2022-12-02T23:45:53.659Z,40.20
2022-12-02T23:48:24.300Z,43.70
2022-12-02T23:50:54.916Z,41.10
2022-12-02T23:53:25.438Z,39.63
2022-12-02T23:55:56.383Z,42.23
2022-12-02T23:58:26.928Z,46.17
